Time;durP1;ratioP1;P1;durP2;ratioP2;P2;SDS_P1;SDS_P2;PMS_P1;PMS_P2;Temp;Humidity;BMP_temperature;BMP_pressure;BME280_temperature;BME280_humidity;BME280_pressure;Samples;Min_cycle;Max_cycle;Signal;HPM_P1;HPM_P2
2021/05/27 00:02:16;;;;;;;6.77;4.60;;;;;;;8.22;91.83;100231.22;4955439;28;20349;-72
2021/05/27 00:04:41;;;;;;;7.47;5.60;;;;;;;8.20;91.78;100235.03;4955152;28;20053;-72
2021/05/27 00:07:07;;;;;;;9.40;5.50;;;;;;;8.23;91.68;100229.38;4972016;28;20512;-72
2021/05/27 00:09:32;;;;;;;15.53;6.83;;;;;;;8.19;91.49;100234.22;4955108;28;20419;-72
2021/05/27 00:11:58;;;;;;;10.47;5.77;;;;;;;8.21;91.02;100226.06;4955166;28;20065;-72
2021/05/27 00:14:24;;;;;;;12.43;4.35;;;;;;;8.25;90.67;100227.41;4955109;28;20046;-71
2021/05/27 00:16:49;;;;;;;10.23;4.68;;;;;;;8.25;90.18;100228.22;4935510;28;1067297;-71
2021/05/27 00:19:15;;;;;;;12.57;5.57;;;;;;;8.30;90.34;100233.06;4972730;28;20034;-71
2021/05/27 00:21:40;;;;;;;8.30;5.43;;;;;;;8.30;90.71;100232.25;4955804;28;20089;-71
2021/05/27 00:24:06;;;;;;;11.87;5.47;;;;;;;8.29;90.53;100234.06;4972805;28;20050;-71
2021/05/27 00:26:32;;;;;;;11.75;5.53;;;;;;;8.31;90.37;100232.09;4955305;28;20034;-71
2021/05/27 00:28:58;;;;;;;6.03;5.03;;;;;;;8.27;90.39;100228.09;4955873;28;20463;-72
2021/05/27 00:31:23;;;;;;;9.97;6.07;;;;;;;8.21;90.65;100232.19;4972670;28;20093;-71
2021/05/27 00:33:48;;;;;;;10.87;4.90;;;;;;;8.22;90.62;100233.88;4972598;28;20039;-71
2021/05/27 00:36:14;;;;;;;9.37;4.70;;;;;;;8.21;89.98;100234.03;4972276;28;20030;-71
2021/05/27 00:38:40;;;;;;;15.40;4.80;;;;;;;8.20;89.72;100240.34;4955731;28;20038;-71
2021/05/27 00:41:05;;;;;;;8.30;3.83;;;;;;;8.21;89.78;100237.50;4972305;28;20452;-71
2021/05/27 00:43:30;;;;;;;6.60;3.43;;;;;;;8.22;89.17;100244.53;4955376;28;20046;-71
2021/05/27 00:45:56;;;;;;;13.67;3.83;;;;;;;8.22;88.84;100238.38;4972092;28;20042;-71
2021/05/27 00:51:06;;;;;;;4.22;3.22;;;;;;;8.22;88.75;100244.53;4972402;28;20031;-71
2021/05/27 00:53:31;;;;;;;6.97;3.47;;;;;;;8.17;88.89;100235.34;4939466;28;20057;-71
2021/05/27 00:55:56;;;;;;;7.67;3.03;;;;;;;8.20;88.53;100240.34;4971955;28;20078;-71
2021/05/27 00:58:25;;;;;;;4.63;3.10;;;;;;;8.18;88.82;100242.34;4972379;28;20071;-71
2021/05/27 01:00:51;;;;;;;5.93;3.63;;;;;;;8.19;88.86;100244.00;4955224;28;20129;-71
2021/05/27 01:03:18;;;;;;;5.30;2.58;;;;;;;8.17;89.27;100252.16;4955586;28;20063;-71
2021/05/27 01:05:44;;;;;;;5.07;3.00;;;;;;;8.19;88.87;100249.31;4955287;28;20035;-71
2021/05/27 01:08:09;;;;;;;7.20;2.88;;;;;;;8.18;89.10;100248.47;4938968;28;20043;-71
2021/05/27 01:10:35;;;;;;;7.27;3.27;;;;;;;8.18;89.06;100248.47;4955317;28;20035;-71
2021/05/27 01:13:01;;;;;;;4.70;2.77;;;;;;;8.20;89.07;100245.69;4939301;28;20039;-71
2021/05/27 01:15:38;;;;;;;7.18;4.03;;;;;;;8.19;88.84;100244.00;4939297;28;20042;-71
2021/05/27 01:18:09;;;;;;;10.20;3.78;;;;;;;8.25;88.79;100246.03;4954991;28;20074;-71
2021/05/27 01:20:36;;;;;;;5.68;4.00;;;;;;;8.27;88.89;100241.38;4956527;28;20031;-71
2021/05/27 01:23:02;;;;;;;5.07;3.60;;;;;;;8.25;88.79;100233.56;4958876;28;20042;-71
2021/05/27 01:25:29;;;;;;;5.80;4.15;;;;;;;8.26;88.83;100239.69;4958832;28;20035;-71
2021/05/27 01:27:56;;;;;;;9.10;3.80;;;;;;;8.25;88.55;100240.69;4958537;28;20042;-71
2021/05/27 01:30:22;;;;;;;13.43;4.57;;;;;;;8.22;88.76;100241.03;4958936;28;20035;-71
2021/05/27 01:32:48;;;;;;;8.60;4.85;;;;;;;8.21;88.94;100242.00;4975842;28;20104;-71
2021/05/27 01:35:18;;;;;;;11.07;4.68;;;;;;;8.21;89.29;100234.84;4958632;28;20472;-71
2021/05/27 01:37:44;;;;;;;12.45;5.13;;;;;;;8.20;89.25;100241.19;4958435;28;20133;-71
2021/05/27 01:40:13;;;;;;;8.73;4.80;;;;;;;8.22;89.42;100238.38;4942796;28;20098;-71
2021/05/27 01:42:40;;;;;;;11.48;4.68;;;;;;;8.20;89.87;100235.03;4958587;28;20460;-71
2021/05/27 01:45:07;;;;;;;10.20;6.30;;;;;;;8.15;90.10;100234.69;4958660;28;20042;-71
2021/05/27 01:47:32;;;;;;;8.63;5.20;;;;;;;8.18;90.09;100242.34;4942248;28;20177;-71
2021/05/27 01:49:58;;;;;;;13.93;5.40;;;;;;;8.17;90.20;100243.31;4975350;28;20102;-72
2021/05/27 01:52:25;;;;;;;9.77;4.93;;;;;;;8.13;90.02;100240.16;4958423;28;20449;-72
2021/05/27 01:54:51;;;;;;;6.43;4.68;;;;;;;8.11;90.10;100242.13;4958374;28;20035;-72
2021/05/27 01:57:17;;;;;;;7.67;4.87;;;;;;;8.14;90.51;100241.81;4975063;28;20376;-72
2021/05/27 01:59:43;;;;;;;11.90;5.68;;;;;;;8.04;90.51;100238.44;4958198;28;20042;-72
2021/05/27 02:02:11;;;;;;;9.82;5.35;;;;;;;8.03;90.79;100234.13;4958245;28;20038;-71
2021/05/27 02:04:36;;;;;;;7.85;4.57;;;;;;;8.04;91.09;100236.59;4958078;28;20105;-72
2021/05/27 02:07:10;;;;;;;5.77;3.70;;;;;;;7.99;91.35;100233.59;4974961;28;20046;-72
2021/05/27 02:09:35;;;;;;;6.70;4.60;;;;;;;7.97;91.56;100227.59;4958189;28;20038;-72
2021/05/27 02:12:03;;;;;;;10.75;4.53;;;;;;;8.01;91.69;100244.09;4958048;28;20189;-72
2021/05/27 02:14:28;;;;;;;7.13;4.72;;;;;;;7.99;91.88;100235.44;4958058;28;20544;-71
2021/05/27 02:16:54;;;;;;;7.85;4.65;;;;;;;7.93;92.08;100236.88;4941675;28;20074;-72
2021/05/27 02:19:21;;;;;;;11.55;4.40;;;;;;;7.98;92.30;100241.72;4957717;28;20038;-72
2021/05/27 02:21:49;;;;;;;6.55;4.57;;;;;;;7.98;92.43;100242.59;4957937;28;20039;-72
2021/05/27 02:24:19;;;;;;;9.07;5.65;;;;;;;7.95;92.74;100237.56;4975210;28;20090;-72
2021/05/27 02:26:45;;;;;;;8.73;4.60;;;;;;;7.91;92.43;100246.84;4957462;28;20464;-71
2021/05/27 02:29:15;;;;;;;9.10;5.90;;;;;;;7.90;92.73;100239.84;4957806;28;20027;-71
2021/05/27 02:31:40;;;;;;;7.80;5.70;;;;;;;7.91;92.70;100240.69;4956421;28;20030;-71
2021/05/27 02:34:13;;;;;;;15.15;5.53;;;;;;;7.87;92.69;100236.69;4957700;28;20047;-71
2021/05/27 02:36:40;;;;;;;11.45;5.53;;;;;;;7.90;92.51;100250.50;4957367;28;20038;-71
2021/05/27 02:39:06;;;;;;;13.17;5.37;;;;;;;7.96;92.58;100249.03;4974663;28;20116;-71
2021/05/27 02:41:42;;;;;;;;;;;;;;;7.92;92.04;100245.84;4975016;28;20051;-72
2021/05/27 02:44:12;;;;;;;6.13;4.60;;;;;;;7.93;92.08;100244.03;4957296;28;19918;-72
2021/05/27 02:46:44;;;;;;;7.25;4.55;;;;;;;7.94;91.96;100246.53;4957319;28;20122;-71
2021/05/27 02:49:10;;;;;;;15.57;5.10;;;;;;;7.95;92.16;100242.88;4957446;28;20431;-71
2021/05/27 02:51:38;;;;;;;13.40;5.47;;;;;;;7.96;92.19;100244.56;4941864;28;20121;-71
2021/05/27 02:54:04;;;;;;;11.80;4.07;;;;;;;7.92;91.84;100237.88;4957471;28;20513;-71
2021/05/27 02:56:30;;;;;;;13.40;4.43;;;;;;;7.88;91.90;100233.88;4974008;28;20023;-71
2021/05/27 02:58:57;;;;;;;15.23;4.78;;;;;;;7.89;91.87;100230.22;4957169;28;20039;-71
2021/05/27 03:01:23;;;;;;;7.63;4.47;;;;;;;7.82;91.29;100231.84;4957137;28;20031;-71
2021/05/27 03:03:51;;;;;;;8.93;4.03;;;;;;;7.79;91.15;100224.19;4957111;28;20031;-71
2021/05/27 03:06:16;;;;;;;14.40;3.67;;;;;;;7.79;91.06;100226.84;4973957;28;20438;-71
2021/05/27 03:08:43;;;;;;;9.30;4.00;;;;;;;7.70;90.82;100225.13;4941338;28;20031;-71
2021/05/27 03:11:09;;;;;;;10.55;3.72;;;;;;;7.71;90.74;100224.13;4940990;28;20061;-71
2021/05/27 03:13:37;;;;;;;7.22;3.80;;;;;;;7.72;90.15;100218.66;4956996;28;20145;-71
2021/05/27 03:16:04;;;;;;;8.25;3.25;;;;;;;7.72;90.01;100225.78;4940737;28;20114;-71
2021/05/27 03:18:31;;;;;;;6.88;2.80;;;;;;;7.72;89.86;100225.78;4973885;28;20035;-71
2021/05/27 03:20:59;;;;;;;7.25;3.50;;;;;;;7.74;89.95;100219.34;4957186;28;20030;-71
2021/05/27 03:23:26;;;;;;;6.10;3.72;;;;;;;7.79;90.04;100224.19;4940897;28;20033;-71
2021/05/27 03:25:52;;;;;;;6.50;3.20;;;;;;;7.82;89.84;100227.38;4973337;28;20105;-71
2021/05/27 03:28:18;;;;;;;;;;;;;;;7.88;89.78;100220.56;4956996;28;20270;-71
2021/05/27 03:30:44;;;;;;;;;;;;;;;7.87;90.16;100224.25;4941054;28;19918;-70
2021/05/27 03:33:11;;;;;;;11.90;3.35;;;;;;;7.83;90.66;100226.38;4956620;28;19964;-70
2021/05/27 03:35:38;;;;;;;9.00;3.90;;;;;;;7.83;91.05;100228.19;4956463;28;20031;-70
2021/05/27 03:38:04;;;;;;;;;;;;;;;7.76;90.79;100224.50;4956670;28;20469;-70
2021/05/27 03:40:30;;;;;;;9.52;3.22;;;;;;;7.79;90.99;100226.84;4973261;28;19918;-70
2021/05/27 03:42:57;;;;;;;10.38;3.15;;;;;;;7.85;91.22;100225.38;4956239;28;20350;-70
2021/05/27 03:45:26;;;;;;;8.43;2.72;;;;;;;7.81;91.02;100231.00;4956371;28;20041;-70
2021/05/27 03:48:00;;;;;;;5.50;3.28;;;;;;;7.82;91.14;100226.53;4973135;28;20077;-70
2021/05/27 03:50:28;;;;;;;8.07;2.15;;;;;;;7.77;91.12;100220.84;4956359;28;20589;-70
2021/05/27 03:52:54;;;;;;;3.35;2.70;;;;;;;7.80;91.40;100224.03;4973181;28;20034;-70
2021/05/27 03:55:22;;;;;;;3.75;3.05;;;;;;;7.76;91.02;100217.34;4956587;28;20525;-70
2021/05/27 03:57:49;;;;;;;6.80;2.45;;;;;;;7.82;91.10;100227.38;4956003;28;20038;-70
2021/05/27 04:03:12;;;;;;;6.43;2.50;;;;;;;7.77;91.13;100234.13;4956089;28;20121;-70
2021/05/27 04:08:25;;;;;;;7.38;2.90;;;;;;;7.77;91.24;100220.84;4956032;28;20035;-70
2021/05/27 04:10:51;;;;;;;3.83;2.43;;;;;;;7.78;91.13;100230.50;4940109;28;20089;-70
2021/05/27 04:13:16;;;;;;;3.63;2.50;;;;;;;7.78;91.13;100235.81;4940094;28;20042;-70
2021/05/27 04:15:42;;;;;;;4.90;2.67;;;;;;;7.80;91.45;100239.16;4972668;28;20286;-71
2021/05/27 04:18:09;;;;;;;8.00;2.78;;;;;;;7.80;91.29;100241.81;4955739;28;20515;-70
2021/05/27 04:20:51;;;;;;;7.28;2.92;;;;;;;7.81;91.06;100235.50;4955802;28;20035;-70
2021/05/27 04:23:39;;;;;;;9.35;3.10;;;;;;;7.81;91.41;100240.81;4955904;28;20048;-70
2021/05/27 04:26:11;;;;;;;8.82;2.63;;;;;;;7.85;91.07;100234.19;4955553;28;20047;-70
2021/05/27 04:28:38;;;;;;;2.78;2.05;;;;;;;7.82;90.81;100234.50;4972836;28;20109;-70
2021/05/27 04:31:15;;;;;;;10.98;2.88;;;;;;;7.86;90.75;100227.88;4972773;28;20089;-70
2021/05/27 04:33:53;;;;;;;7.70;2.72;;;;;;;7.83;90.66;100233.50;4972719;28;20082;-70
2021/05/27 04:36:20;;;;;;;3.38;2.70;;;;;;;7.80;90.59;100245.28;4955418;28;20034;-70
2021/05/27 04:38:45;;;;;;;;;;;;;;;7.89;91.08;100243.53;4955931;28;20041;-70
2021/05/27 04:41:11;;;;;;;;;;;;;;;7.92;91.21;100235.22;4972969;28;19918;-70
2021/05/27 04:43:40;;;;;;;;;;;;;;;7.90;91.08;100239.03;4956059;28;19957;-70
2021/05/27 04:46:06;;;;;;;9.07;2.78;;;;;;;7.93;91.19;100238.72;4955313;28;19920;-70
2021/05/27 04:48:32;;;;;;;3.35;2.25;;;;;;;7.97;91.09;100240.91;4955658;28;20109;-70
2021/05/27 04:50:57;;;;;;;10.60;3.60;;;;;;;7.98;90.74;100234.59;4972553;28;20516;-70
2021/05/27 04:53:25;;;;;;;5.13;3.60;;;;;;;7.98;90.74;100237.25;4955357;28;20035;-70
2021/05/27 04:55:51;;;;;;;4.35;2.35;;;;;;;8.11;90.80;100236.00;4971648;28;20058;-71
2021/05/27 04:58:18;;;;;;;3.72;2.17;;;;;;;8.10;90.49;100240.47;4955459;28;20157;-70
2021/05/27 05:00:43;;;;;;;4.07;2.50;;;;;;;8.13;90.44;100234.00;4955417;28;20049;-70
2021/05/27 05:03:09;;;;;;;7.43;3.13;;;;;;;8.20;90.50;100243.00;4972457;28;20034;-71
2021/05/27 05:05:36;;;;;;;2.53;2.20;;;;;;;8.22;90.44;100239.19;4955512;28;20026;-71
2021/05/27 05:08:02;;;;;;;4.18;2.67;;;;;;;8.20;90.66;100251.00;4954796;28;20053;-71
2021/05/27 05:10:28;;;;;;;4.72;2.88;;;;;;;8.28;90.45;100253.66;4955402;28;20101;-71
2021/05/27 05:12:55;;;;;;;9.90;2.58;;;;;;;8.16;90.60;100241.66;4972278;28;20042;-71
2021/05/27 05:15:23;;;;;;;8.02;3.47;;;;;;;8.17;90.74;100238.00;4972015;28;20062;-71
2021/05/27 05:17:59;;;;;;;4.82;2.53;;;;;;;8.29;91.46;100247.38;4954697;28;20038;-71
2021/05/27 05:20:31;;;;;;;4.05;2.28;;;;;;;8.86;91.02;100252.91;4971993;28;20105;-71
2021/05/27 05:22:57;;;;;;;7.38;2.20;;;;;;;8.86;88.81;100258.22;4972206;28;20045;-71
2021/05/27 05:25:23;;;;;;;4.97;2.50;;;;;;;8.78;88.68;100255.56;4955300;28;20042;-70
2021/05/27 05:27:49;;;;;;;4.30;2.53;;;;;;;8.73;88.44;100257.84;4954886;28;20349;-70
2021/05/27 05:30:16;;;;;;;4.05;2.42;;;;;;;8.77;89.11;100261.84;4955202;28;20035;-70
2021/05/27 05:32:42;;;;;;;6.10;2.72;;;;;;;8.83;89.25;100263.88;4954953;28;20066;-70
2021/05/27 05:35:10;;;;;;;7.90;2.97;;;;;;;8.79;88.57;100259.03;4971982;28;20127;-70
2021/05/27 05:37:37;;;;;;;9.27;4.35;;;;;;;8.87;89.19;100267.88;4954707;28;20482;-70
2021/05/27 05:40:04;;;;;;;5.38;3.30;;;;;;;8.94;89.42;100272.53;4972005;28;20045;-70
2021/05/27 05:42:30;;;;;;;4.25;3.30;;;;;;;8.97;89.21;100269.56;4954878;28;20043;-70
2021/05/27 05:44:55;;;;;;;7.17;3.13;;;;;;;9.02;89.26;100268.06;4971963;28;20503;-70
2021/05/27 05:47:20;;;;;;;4.73;3.20;;;;;;;9.02;89.18;100275.22;4938695;28;20141;-70
2021/05/27 05:49:46;;;;;;;7.03;3.50;;;;;;;8.97;88.84;100275.72;4938879;28;20539;-70
2021/05/27 05:52:12;;;;;;;6.37;3.70;;;;;;;8.94;89.17;100278.69;4971943;28;20061;-70
2021/05/27 05:54:38;;;;;;;10.02;4.38;;;;;;;8.82;89.37;100280.00;4954960;28;20039;-70
2021/05/27 05:57:03;;;;;;;5.53;3.27;;;;;;;8.91;90.51;100287.00;4971637;28;20045;-70
2021/05/27 05:59:28;;;;;;;7.27;3.87;;;;;;;8.99;90.56;100292.38;4938871;28;20073;-70
2021/05/27 06:01:54;;;;;;;10.03;4.70;;;;;;;9.06;90.68;100293.38;4954873;28;20038;-70
2021/05/27 06:04:21;;;;;;;9.45;4.68;;;;;;;9.14;90.61;100302.38;4971657;28;20050;-71
2021/05/27 06:07:07;;;;;;;6.65;4.28;;;;;;;9.13;90.35;100306.03;4956660;28;20122;-70
2021/05/27 06:09:32;;;;;;;14.50;4.53;;;;;;;9.05;90.31;100310.34;4975284;28;20126;-70
2021/05/27 06:11:58;;;;;;;7.13;4.10;;;;;;;9.14;90.75;100313.03;4975258;28;20054;-71
2021/05/27 06:14:23;;;;;;;7.03;4.00;;;;;;;9.25;90.88;100321.53;4974996;28;20400;-70
2021/05/27 06:16:48;;;;;;;8.10;3.30;;;;;;;9.32;90.37;100331.53;4974670;28;20146;-71
2021/05/27 06:19:14;;;;;;;3.70;3.00;;;;;;;9.30;89.92;100324.53;4941998;28;20034;-71
2021/05/27 06:21:45;;;;;;;7.90;4.32;;;;;;;9.34;89.91;100330.41;4958008;28;20064;-70
2021/05/27 06:24:18;;;;;;;9.18;4.03;;;;;;;9.50;90.02;100335.75;4942980;28;20039;-70
2021/05/27 06:26:43;;;;;;;13.10;5.27;;;;;;;9.66;89.60;100340.22;4957685;28;20467;-70
2021/05/27 06:29:09;;;;;;;10.17;4.27;;;;;;;9.79;88.88;100339.72;4957740;28;20057;-70
2021/05/27 06:31:34;;;;;;;11.33;5.37;;;;;;;9.95;88.68;100346.91;4957866;28;20031;-70
2021/05/27 06:33:59;;;;;;;23.37;5.20;;;;;;;9.99;87.17;100350.03;4957220;28;20107;-70
2021/05/27 06:36:26;;;;;;;8.30;3.63;;;;;;;10.11;86.36;100357.53;4957128;28;20058;-70
2021/05/27 06:38:51;;;;;;;7.47;3.97;;;;;;;10.21;85.93;100362.69;4941236;28;20569;-70
2021/05/27 06:41:19;;;;;;;6.57;2.57;;;;;;;10.20;86.02;100363.69;4957191;28;20074;-70
2021/05/27 06:43:46;;;;;;;6.03;3.60;;;;;;;10.47;86.08;100359.81;4956987;28;20097;-70
2021/05/27 06:46:13;;;;;;;6.43;4.30;;;;;;;10.69;85.13;100368.09;4956915;28;20100;-70
2021/05/27 06:48:38;;;;;;;10.30;3.53;;;;;;;11.31;84.12;100372.66;4956973;28;20035;-70
2021/05/27 06:51:03;;;;;;;3.93;2.50;;;;;;;12.33;79.84;100375.03;4974057;28;20034;-71
2021/05/27 06:53:29;;;;;;;5.87;2.43;;;;;;;12.48;76.76;100375.03;4973998;28;20165;-71
2021/05/27 06:55:54;;;;;;;4.20;2.20;;;;;;;13.50;72.41;100367.03;4973732;28;20437;-71
2021/05/27 06:58:20;;;;;;;7.63;2.80;;;;;;;13.86;70.54;100376.88;4973680;28;20069;-72
2021/05/27 07:00:45;;;;;;;4.90;1.90;;;;;;;13.57;71.32;100381.34;4940837;28;20510;-72
2021/05/27 07:03:12;;;;;;;5.07;1.85;;;;;;;13.46;70.36;100381.84;4973588;28;20042;-72
2021/05/27 07:05:38;;;;;;;4.88;1.73;;;;;;;13.69;72.15;100384.34;4956594;28;20154;-72
2021/05/27 07:08:06;;;;;;;1.58;1.33;;;;;;;13.92;69.86;100384.16;4973522;28;20389;-72
2021/05/27 07:10:31;;;;;;;4.60;1.60;;;;;;;13.06;71.29;100390.25;4973753;28;20448;-73
2021/05/27 07:13:02;;;;;;;1.93;1.10;;;;;;;13.14;71.79;100385.81;4956644;28;20085;-73
2021/05/27 07:15:29;;;;;;;3.47;2.10;;;;;;;12.85;72.06;100392.84;4973661;28;20289;-73
2021/05/27 07:17:55;;;;;;;3.90;1.90;;;;;;;12.53;73.75;100394.06;4955748;28;20749;-74
2021/05/27 07:20:21;;;;;;;;;;;;;;;13.45;71.88;100401.66;4973733;28;20443;-74
2021/05/27 07:22:48;;;;;;;3.47;1.58;;;;;;;13.60;70.78;100407.81;4940568;28;20343;-74
2021/05/27 07:25:13;;;;;;;1.88;0.90;;;;;;;13.80;67.22;100404.50;4940338;28;20082;-73
2021/05/27 07:27:39;;;;;;;4.78;1.40;;;;;;;13.52;71.04;100406.06;4956294;28;20479;-73
2021/05/27 07:30:07;;;;;;;3.83;1.43;;;;;;;13.60;69.38;100417.69;4956375;28;20396;-73
2021/05/27 07:32:33;;;;;;;5.20;1.45;;;;;;;13.58;68.03;100414.38;4973235;28;20133;-72
2021/05/27 07:34:58;;;;;;;6.43;1.40;;;;;;;14.08;68.49;100416.09;4940040;28;20097;-72
2021/05/27 07:37:24;;;;;;;6.20;1.00;;;;;;;14.00;68.62;100418.94;4972978;28;20412;-72
2021/05/27 07:39:49;;;;;;;1.40;0.90;;;;;;;13.75;68.57;100433.75;4973375;28;20440;-72
2021/05/27 07:42:15;;;;;;;10.90;1.40;;;;;;;13.56;67.29;100432.53;4956102;28;20030;-72
2021/05/27 07:44:41;;;;;;;2.55;1.00;;;;;;;13.18;70.15;100440.69;4956150;28;20038;-72
2021/05/27 07:47:06;;;;;;;3.67;1.40;;;;;;;12.97;70.61;100439.63;4972881;28;20046;-71
2021/05/27 07:49:32;;;;;;;4.43;1.40;;;;;;;12.64;70.75;100441.81;4972947;28;20038;-71
2021/05/27 07:51:58;;;;;;;1.97;1.73;;;;;;;12.63;72.28;100449.00;4972992;28;20069;-71
2021/05/27 07:54:24;;;;;;;1.67;1.13;;;;;;;12.54;71.39;100444.75;4972918;28;20301;-71
2021/05/27 07:56:50;;;;;;;5.32;1.60;;;;;;;12.38;71.29;100458.28;4955696;28;20062;-71
2021/05/27 07:59:16;;;;;;;2.13;0.98;;;;;;;12.18;72.03;100455.31;4955820;28;20444;-71
2021/05/27 08:01:42;;;;;;;2.60;1.83;;;;;;;12.53;71.96;100447.63;4955784;28;20039;-71
2021/05/27 08:04:08;;;;;;;3.17;1.58;;;;;;;13.59;67.89;100461.63;4955632;28;20371;-71
2021/05/27 08:06:33;;;;;;;2.58;0.93;;;;;;;14.53;67.43;100461.47;4972163;28;20051;-71
2021/05/27 08:08:59;;;;;;;3.07;1.10;;;;;;;14.28;66.02;100464.59;4972550;28;20034;-71
2021/05/27 08:11:24;;;;;;;3.50;0.90;;;;;;;13.73;66.05;100466.13;4955495;28;20504;-71
2021/05/27 08:13:49;;;;;;;3.67;1.00;;;;;;;13.44;67.24;100477.78;4972564;28;20372;-71
2021/05/27 08:16:15;;;;;;;2.50;1.10;;;;;;;13.19;67.34;100487.94;4955290;28;20375;-71
2021/05/27 08:18:40;;;;;;;1.33;0.80;;;;;;;12.73;71.26;100485.41;4972446;28;20034;-71
2021/05/27 08:21:06;;;;;;;3.40;1.17;;;;;;;12.77;68.93;100476.00;4972393;28;20460;-71
2021/05/27 08:23:32;;;;;;;3.80;1.00;;;;;;;13.21;69.34;100491.25;4972431;28;20034;-71
2021/05/27 08:25:58;;;;;;;1.55;0.90;;;;;;;13.04;68.81;100483.41;4939225;28;20261;-71
2021/05/27 08:28:23;;;;;;;10.33;1.43;;;;;;;13.70;69.03;100482.63;4972646;28;20042;-71
2021/05/27 08:30:48;;;;;;;1.63;0.90;;;;;;;13.47;69.07;100494.31;4971433;28;20038;-71
2021/05/27 08:33:14;;;;;;;1.20;0.83;;;;;;;13.70;67.81;100498.72;4939236;28;20063;-71
2021/05/27 08:35:39;;;;;;;1.00;1.00;;;;;;;13.78;67.49;100503.94;4955283;28;20043;-71
2021/05/27 08:38:05;;;;;;;2.97;0.83;;;;;;;13.84;66.58;100505.06;4954700;28;20043;-71
2021/05/27 08:40:30;;;;;;;2.50;1.00;;;;;;;13.43;68.12;100508.28;4971649;28;20039;-71
2021/05/27 08:42:58;;;;;;;4.37;1.30;;;;;;;13.31;66.13;100521.31;4954794;28;20042;-71
2021/05/27 08:45:34;;;;;;;1.98;1.00;;;;;;;13.46;67.39;100524.84;4954746;28;20345;-71
2021/05/27 08:47:59;;;;;;;2.67;1.23;;;;;;;13.27;68.13;100525.34;4954303;28;20042;-71
2021/05/27 08:50:30;;;;;;;6.40;1.20;;;;;;;13.27;66.53;100523.56;4954791;28;20282;-71
2021/05/27 08:52:59;;;;;;;3.22;0.70;;;;;;;13.43;67.01;100541.28;4954751;28;20050;-71
2021/05/27 08:55:25;;;;;;;1.17;0.93;;;;;;;13.47;66.67;100545.25;4939176;28;20444;-71
2021/05/27 08:57:51;;;;;;;;;;;;;;;13.49;67.48;100545.09;4939158;28;20070;-71
2021/05/27 09:00:17;;;;;;;1.50;0.80;;;;;;;13.48;67.06;100536.19;4939042;28;19976;-71
2021/05/27 09:03:00;;;;;;;1.88;0.90;;;;;;;13.48;66.00;100554.94;4971888;28;20177;-71
2021/05/27 09:05:28;;;;;;;2.83;1.17;;;;;;;13.77;64.65;100555.97;4954800;28;20110;-71
2021/05/27 09:07:53;;;;;;;7.05;1.13;;;;;;;14.35;64.53;100559.47;4954569;28;20109;-71
2021/05/27 09:10:19;;;;;;;2.37;0.70;;;;;;;14.10;65.21;100558.19;4971954;28;20457;-71
2021/05/27 09:12:44;;;;;;;3.33;0.80;;;;;;;14.62;64.53;100561.59;4954828;28;20047;-71
2021/05/27 09:15:15;;;;;;;3.50;0.70;;;;;;;14.41;63.34;100575.84;4972171;28;20042;-71
2021/05/27 09:17:52;;;;;;;1.30;1.00;;;;;;;14.05;63.06;100574.88;4971232;28;20483;-71
2021/05/27 09:20:19;;;;;;;2.20;0.90;;;;;;;13.81;64.17;100580.53;4954488;28;20035;-71
2021/05/27 09:22:45;;;;;;;2.55;0.63;;;;;;;13.97;64.16;100583.00;4938329;28;20046;-71
2021/05/27 09:25:37;;;;;;;;;;;;;;;13.67;65.06;100587.59;4955170;28;20053;-71
2021/05/27 09:28:05;;;;;;;2.00;0.90;;;;;;;13.82;63.84;100595.66;4952269;28;20315;-71
2021/05/27 09:30:31;;;;;;;0.90;0.60;;;;;;;13.98;63.78;100591.88;4971506;28;20050;-71
2021/05/27 09:32:56;;;;;;;1.25;0.70;;;;;;;13.91;63.33;100594.53;4971570;28;20053;-71
2021/05/27 09:35:21;;;;;;;1.37;0.70;;;;;;;13.97;64.38;100591.06;4971642;28;20368;-71
2021/05/27 09:37:49;;;;;;;1.77;0.67;;;;;;;13.87;63.04;100610.16;4971239;28;20038;-71
2021/05/27 09:40:42;;;;;;;4.00;0.60;;;;;;;13.67;63.51;100601.84;4953858;28;20054;-71
2021/05/27 09:43:10;;;;;;;1.35;0.70;;;;;;;13.75;65.01;100613.50;4948647;28;20129;-71
2021/05/27 09:45:38;;;;;;;3.22;1.00;;;;;;;13.72;64.05;100612.03;4975203;28;20106;-71
2021/05/27 09:48:20;;;;;;;2.30;0.60;;;;;;;13.57;63.30;100612.03;4974763;28;20384;-71
2021/05/27 09:50:46;;;;;;;1.17;0.60;;;;;;;13.69;62.57;100625.81;4975140;28;20045;-71
2021/05/27 09:53:35;;;;;;;5.47;0.82;;;;;;;13.40;64.44;100632.00;4957934;28;20034;-71
2021/05/27 09:56:03;;;;;;;2.55;0.60;;;;;;;13.31;64.89;100631.25;4964438;28;20042;-71
2021/05/27 09:58:28;;;;;;;2.95;1.20;;;;;;;13.56;64.33;100636.38;4957857;28;20068;-71
2021/05/27 10:00:54;;;;;;;5.47;0.93;;;;;;;13.49;65.20;100637.09;4958013;28;20453;-71
2021/05/27 10:03:20;;;;;;;2.22;0.60;;;;;;;13.24;64.53;100641.00;4974754;28;20034;-71
2021/05/27 10:05:49;;;;;;;4.05;1.00;;;;;;;13.40;64.32;100642.72;4957709;28;20523;-71
2021/05/27 10:08:15;;;;;;;6.00;1.45;;;;;;;13.62;65.37;100644.47;4957730;28;20049;-71
2021/05/27 10:10:41;;;;;;;4.20;1.13;;;;;;;13.58;64.56;100653.09;4974843;28;20035;-71
2021/05/27 10:13:08;;;;;;;4.47;0.75;;;;;;;13.60;63.28;100646.53;4974723;28;20089;-71
2021/05/27 10:15:34;;;;;;;2.40;1.10;;;;;;;13.97;64.24;100650.09;4974585;28;20042;-72
2021/05/27 10:18:03;;;;;;;;;;;;;;;14.41;61.90;100661.78;4974800;28;20423;-72
2021/05/27 10:20:29;;;;;;;5.50;1.33;;;;;;;14.56;62.59;100655.38;4974803;28;19932;-71
2021/05/27 10:22:56;;;;;;;2.92;1.52;;;;;;;14.39;61.51;100666.53;4941872;28;20043;-72
2021/05/27 10:25:22;;;;;;;3.20;0.90;;;;;;;14.19;62.80;100671.63;4974425;28;20527;-72
2021/05/27 10:27:50;;;;;;;3.17;1.05;;;;;;;14.40;62.81;100676.22;4957138;28;20466;-72
2021/05/27 10:30:18;;;;;;;3.03;1.13;;;;;;;14.23;62.17;100681.00;4974363;28;20038;-72
2021/05/27 10:32:48;;;;;;;4.53;1.15;;;;;;;14.42;61.97;100680.41;4957376;28;20105;-72
2021/05/27 10:35:14;;;;;;;1.48;0.70;;;;;;;14.23;62.21;100676.44;4974411;28;20113;-72
2021/05/27 10:37:41;;;;;;;1.63;0.80;;;;;;;14.29;59.48;100681.06;4957148;28;20444;-72
2021/05/27 10:40:19;;;;;;;5.03;0.90;;;;;;;14.18;62.78;100689.59;4974232;28;20424;-72
2021/05/27 10:43:18;;;;;;;1.58;1.00;;;;;;;14.40;61.99;100705.78;4957222;28;20061;-72
2021/05/27 10:45:58;;;;;;;3.53;0.90;;;;;;;14.01;61.77;100704.25;4973793;28;20047;-71
2021/05/27 10:48:25;;;;;;;4.35;1.45;;;;;;;14.29;63.21;100704.41;4956945;28;20039;-71
2021/05/27 10:53:37;;;;;;;4.15;1.30;;;;;;;14.49;61.90;100708.19;4973144;28;20463;-71
2021/05/27 10:56:38;;;;;;;1.88;1.13;;;;;;;14.75;61.38;100722.97;4957044;28;20039;-72
2021/05/27 10:59:12;;;;;;;2.78;1.10;;;;;;;14.86;59.38;100725.13;4957405;28;20096;-71
2021/05/27 11:01:39;;;;;;;4.40;1.60;;;;;;;14.50;58.08;100725.94;4941431;28;20043;-71
2021/05/27 11:04:06;;;;;;;3.50;0.98;;;;;;;14.03;60.46;100735.28;4974188;28;20423;-71
2021/05/27 11:06:39;;;;;;;3.40;0.95;;;;;;;13.59;63.02;100743.28;4956955;28;20100;-72
2021/05/27 11:09:07;;;;;;;4.68;1.40;;;;;;;13.43;65.56;100739.72;4974293;28;20102;-71
2021/05/27 11:11:45;;;;;;;2.92;1.58;;;;;;;13.45;64.68;100752.97;4974221;28;20034;-72
2021/05/27 11:14:28;;;;;;;2.75;1.23;;;;;;;12.96;66.71;100748.78;4957148;28;20035;-71
2021/05/27 11:17:11;;;;;;;5.00;1.42;;;;;;;12.73;66.53;100751.44;4973710;28;20476;-72
2021/05/27 11:25:09;;;;;;;4.07;1.48;;;;;;;12.92;68.62;100763.53;4973819;28;20034;-71
2021/05/27 11:27:36;;;;;;;2.47;1.55;;;;;;;12.80;68.21;100773.00;4973464;28;20043;-71
2021/05/27 11:30:17;;;;;;;6.90;1.95;;;;;;;13.17;67.53;100776.78;4956223;28;20038;-71
2021/05/27 11:32:44;;;;;;;3.67;1.70;;;;;;;13.39;67.08;100773.31;4955217;28;20078;-71
2021/05/27 11:35:10;;;;;;;5.53;1.60;;;;;;;13.59;66.10;100770.09;4955105;28;20049;-71
2021/05/27 11:37:38;;;;;;;6.17;1.27;;;;;;;13.97;65.08;100775.44;4938720;28;20369;-71
2021/05/27 11:40:06;;;;;;;3.00;1.10;;;;;;;14.15;64.25;100782.09;4972610;28;20039;-71
2021/05/27 11:42:35;;;;;;;1.83;1.10;;;;;;;14.19;64.47;100782.59;4973605;28;20034;-72
2021/05/27 11:45:03;;;;;;;1.40;1.00;;;;;;;14.27;64.12;100785.16;4940649;28;20125;-71
2021/05/27 11:47:29;;;;;;;3.03;1.55;;;;;;;14.33;62.91;100784.44;4973188;28;20085;-71
2021/05/27 11:50:06;;;;;;;2.60;0.80;;;;;;;14.46;62.58;100782.94;4956359;28;20062;-71
2021/05/27 11:52:32;;;;;;;4.50;1.38;;;;;;;15.06;61.38;100773.75;4973346;28;20113;-71